Time;durP1;ratioP1;P1;durP2;ratioP2;P2;SDS_P1;SDS_P2;PMS_P1;PMS_P2;Temp;Humidity;BMP_temperature;BMP_pressure;BME280_temperature;BME280_humidity;BME280_pressure;Samples;Min_cycle;Max_cycle;Signal;HPM_P1;HPM_P2
2021/05/29 00:00:41;;;;;;;14.60;9.38;;;18.90;85.80;;;;;;5075916;28;20032;-46
2021/05/29 00:03:07;;;;;;;8.93;7.10;;;18.90;85.90;;;;;;5076228;28;20036;-36
2021/05/29 00:05:33;;;;;;;8.05;7.03;;;18.80;85.80;;;;;;5075886;28;20530;-37
2021/05/29 00:07:58;;;;;;;9.68;7.57;;;18.80;85.80;;;;;;5076146;28;20071;-36
2021/05/29 00:10:24;;;;;;;12.90;10.50;;;18.80;86.00;;;;;;5075907;28;20097;-45
2021/05/29 00:12:50;;;;;;;9.10;8.18;;;18.80;86.00;;;;;;5075728;28;20090;-46
2021/05/29 00:15:15;;;;;;;10.98;8.82;;;18.70;86.00;;;;;;5075961;28;20090;-38
2021/05/29 00:17:41;;;;;;;19.02;7.90;;;18.70;86.00;;;;;;5076168;28;20025;-45
2021/05/29 00:20:07;;;;;;;11.50;9.27;;;18.70;86.20;;;;;;5075879;28;20101;-38
2021/05/29 00:22:34;;;;;;;12.80;8.80;;;18.70;86.20;;;;;;5075615;28;20032;-37
2021/05/29 00:25:00;;;;;;;10.10;9.00;;;18.60;86.10;;;;;;5075569;28;20025;-38
2021/05/29 00:27:25;;;;;;;12.05;9.43;;;18.60;86.20;;;;;;5075893;28;20028;-45
2021/05/29 00:29:51;;;;;;;10.50;9.50;;;18.60;86.10;;;;;;5075376;28;20052;-37
2021/05/29 00:32:17;;;;;;;11.63;9.73;;;18.60;86.40;;;;;;5075610;28;20082;-36
2021/05/29 00:34:42;;;;;;;9.80;8.63;;;18.50;86.30;;;;;;5075355;28;20040;-38
2021/05/29 00:37:08;;;;;;;11.80;10.60;;;18.50;86.50;;;;;;5075541;28;20037;-44
2021/05/29 00:39:33;;;;;;;17.00;13.15;;;18.50;86.40;;;;;;5075408;28;20024;-46
2021/05/29 00:41:59;;;;;;;13.95;11.05;;;18.40;86.20;;;;;;5075338;28;20029;-37
2021/05/29 00:44:25;;;;;;;15.20;12.77;;;18.40;86.30;;;;;;5075493;28;20086;-46
2021/05/29 00:46:51;;;;;;;12.35;10.95;;;18.30;86.50;;;;;;5075428;28;20051;-37
2021/05/29 00:49:16;;;;;;;15.38;11.02;;;18.30;86.70;;;;;;5075313;28;20134;-38
2021/05/29 00:51:43;;;;;;;14.23;11.88;;;18.20;87.00;;;;;;5075280;28;20024;-36
2021/05/29 00:54:10;;;;;;;18.67;13.30;;;18.20;87.20;;;;;;5075247;28;20062;-36
2021/05/29 00:56:36;;;;;;;19.75;12.70;;;18.10;87.30;;;;;;5075494;28;20036;-36
2021/05/29 00:59:03;;;;;;;11.57;10.10;;;18.10;87.50;;;;;;5075230;28;20048;-46
2021/05/29 01:01:29;;;;;;;14.77;12.02;;;18.10;87.60;;;;;;5075570;28;20036;-45
2021/05/29 01:03:55;;;;;;;11.70;9.63;;;18.10;87.60;;;;;;5075346;28;20297;-37
2021/05/29 01:06:20;;;;;;;11.82;9.88;;;18.10;87.60;;;;;;5075264;28;20045;-45
2021/05/29 01:08:47;;;;;;;15.60;12.68;;;18.10;87.70;;;;;;5075051;28;20467;-36
2021/05/29 01:11:13;;;;;;;17.50;14.63;;;18.10;87.90;;;;;;5057251;28;20025;-44
2021/05/29 01:13:39;;;;;;;17.85;15.43;;;18.10;88.00;;;;;;5075121;28;20062;-36
2021/05/29 01:16:40;;;;;;;16.35;13.13;;;18.10;88.10;;;;;;5075199;28;20131;-45
2021/05/29 01:19:02;;;;;;;12.98;11.63;;;18.10;88.20;;;;;;5074615;28;20424;-47
2021/05/29 01:21:28;;;;;;;14.23;12.52;;;18.10;88.30;;;;;;5075199;28;20060;-46
2021/05/29 01:23:54;;;;;;;13.07;11.45;;;18.10;88.50;;;;;;5075039;28;20068;-36
2021/05/29 01:26:20;;;;;;;13.52;11.00;;;18.10;88.50;;;;;;5075173;28;20032;-49
2021/05/29 01:28:46;;;;;;;12.80;10.75;;;18.20;88.60;;;;;;5074844;28;20463;-37
2021/05/29 01:31:13;;;;;;;21.08;13.68;;;18.20;88.60;;;;;;5074921;28;20035;-40
2021/05/29 01:33:39;;;;;;;13.43;11.77;;;18.20;88.40;;;;;;5075174;28;20051;-46
2021/05/29 01:36:09;;;;;;;24.70;12.43;;;18.30;88.50;;;;;;5075158;28;20033;-37
2021/05/29 01:38:37;;;;;;;20.80;12.68;;;18.30;88.30;;;;;;5074934;28;20085;-37
2021/05/29 01:41:11;;;;;;;16.30;11.32;;;18.30;88.40;;;;;;5074742;28;20324;-37
2021/05/29 01:43:49;;;;;;;14.20;10.75;;;18.30;88.10;;;;;;5076181;28;20436;-37
2021/05/29 01:46:22;;;;;;;12.40;11.10;;;18.30;88.00;;;;;;5078381;28;20099;-46
2021/05/29 01:48:49;;;;;;;16.25;14.43;;;18.30;88.10;;;;;;5060503;28;20041;-44
2021/05/29 01:51:17;;;;;;;16.17;13.13;;;18.30;88.10;;;;;;5078243;28;20028;-44
2021/05/29 01:53:44;;;;;;;18.25;13.10;;;18.30;88.10;;;;;;5078047;28;20044;-44
2021/05/29 01:56:11;;;;;;;15.98;12.43;;;18.30;88.40;;;;;;5078303;28;20028;-49
2021/05/29 01:58:39;;;;;;;19.42;15.25;;;18.40;88.60;;;;;;5078237;28;20039;-37
2021/05/29 02:01:09;;;;;;;21.00;15.57;;;18.40;88.60;;;;;;5077926;28;20036;-37
2021/05/29 02:03:37;;;;;;;20.17;14.20;;;18.40;88.40;;;;;;5078341;28;20036;-38
2021/05/29 02:06:04;;;;;;;19.75;15.23;;;18.40;88.00;;;;;;5078011;28;20029;-36
2021/05/29 02:08:30;;;;;;;19.20;12.63;;;18.40;88.00;;;;;;5077907;28;20028;-36
2021/05/29 02:10:56;;;;;;;21.75;15.57;;;18.40;88.10;;;;;;5077985;28;20484;-36
2021/05/29 02:13:29;;;;;;;20.92;15.20;;;18.40;88.30;;;;;;5060154;28;20115;-44
2021/05/29 02:15:55;;;;;;;19.08;14.18;;;18.40;88.50;;;;;;5077944;28;20033;-44
2021/05/29 02:18:21;;;;;;;22.52;15.23;;;18.50;88.70;;;;;;5077726;28;20032;-44
2021/05/29 02:20:50;;;;;;;22.85;16.65;;;18.50;88.70;;;;;;5077782;28;20035;-45
2021/05/29 02:23:24;;;;;;;23.90;17.88;;;18.50;88.70;;;;;;5077482;28;20033;-45
2021/05/29 02:25:57;;;;;;;17.40;15.13;;;18.60;88.50;;;;;;5078167;28;20416;-37
2021/05/29 02:28:23;;;;;;;18.95;15.82;;;18.60;88.50;;;;;;5077903;28;20404;-37
2021/05/29 02:30:50;;;;;;;16.50;14.48;;;18.60;88.60;;;;;;5077591;28;20111;-39
2021/05/29 02:33:16;;;;;;;15.50;13.27;;;18.60;88.40;;;;;;5077601;28;20041;-46
2021/05/29 02:35:42;;;;;;;16.60;13.93;;;18.60;88.50;;;;;;5077447;28;20035;-44
2021/05/29 02:38:08;;;;;;;19.45;16.10;;;18.60;88.30;;;;;;5077696;28;20028;-44
2021/05/29 02:40:35;;;;;;;21.92;17.77;;;18.60;88.10;;;;;;5077359;28;20032;-45
2021/05/29 02:43:01;;;;;;;18.98;16.60;;;18.60;87.80;;;;;;5077522;28;20107;-37
2021/05/29 02:45:27;;;;;;;20.42;16.25;;;18.60;87.60;;;;;;5077140;28;20044;-36
2021/05/29 02:47:54;;;;;;;24.25;18.95;;;18.60;87.60;;;;;;5077259;28;20035;-37
2021/05/29 02:50:21;;;;;;;22.38;19.52;;;18.60;88.10;;;;;;5077294;28;20062;-45
2021/05/29 02:52:47;;;;;;;25.02;17.98;;;18.60;87.80;;;;;;5077262;28;20041;-46
2021/05/29 02:55:21;;;;;;;22.17;18.15;;;18.60;87.80;;;;;;5075779;28;20068;-45
2021/05/29 02:57:47;;;;;;;24.92;17.13;;;18.50;88.00;;;;;;5077518;28;20343;-45
2021/05/29 03:00:13;;;;;;;19.77;15.38;;;18.60;88.00;;;;;;5076849;28;20040;-37
2021/05/29 03:02:38;;;;;;;28.95;20.55;;;18.60;87.90;;;;;;5077261;28;20028;-37
2021/05/29 03:05:06;;;;;;;26.38;20.58;;;18.60;87.70;;;;;;5076477;28;20037;-38
2021/05/29 03:07:32;;;;;;;23.52;19.23;;;18.60;87.50;;;;;;5077172;28;20242;-45
2021/05/29 03:09:58;;;;;;;22.45;18.50;;;18.60;87.70;;;;;;5076956;28;20404;-45
2021/05/29 03:12:24;;;;;;;18.42;15.48;;;18.60;87.90;;;;;;5076858;28;20441;-36
2021/05/29 03:14:50;;;;;;;26.38;19.30;;;18.70;87.80;;;;;;5076898;28;20112;-45
2021/05/29 03:17:16;;;;;;;21.58;16.98;;;18.70;87.60;;;;;;5076973;28;20056;-44
2021/05/29 03:19:42;;;;;;;24.38;19.55;;;18.70;87.80;;;;;;5076678;28;20024;-36
2021/05/29 03:22:08;;;;;;;22.00;17.25;;;18.80;87.70;;;;;;5076657;28;20090;-43
2021/05/29 03:24:33;;;;;;;22.52;18.60;;;18.80;87.50;;;;;;5076586;28;20031;-36
2021/05/29 03:26:59;;;;;;;23.98;17.98;;;18.80;87.60;;;;;;5076613;28;20063;-37
2021/05/29 03:29:25;;;;;;;19.58;16.38;;;18.80;87.50;;;;;;5076547;28;20466;-36
2021/05/29 03:31:50;;;;;;;18.25;15.57;;;18.90;87.30;;;;;;5076059;28;20064;-37
2021/05/29 03:34:16;;;;;;;23.70;18.70;;;18.90;87.20;;;;;;5076573;28;20040;-45
2021/05/29 03:36:42;;;;;;;19.15;15.55;;;18.90;87.20;;;;;;5076542;28;20032;-36
2021/05/29 03:39:07;;;;;;;22.63;16.73;;;18.90;86.90;;;;;;5076402;28;20035;-36
2021/05/29 03:41:33;;;;;;;22.23;17.73;;;19.00;86.80;;;;;;5075990;28;20064;-46
2021/05/29 03:44:00;;;;;;;22.02;17.58;;;19.00;86.80;;;;;;5076351;28;20082;-37
2021/05/29 03:46:27;;;;;;;22.65;19.42;;;19.00;86.90;;;;;;5076293;28;20036;-37
2021/05/29 03:48:53;;;;;;;20.10;17.52;;;19.00;86.70;;;;;;5076132;28;20408;-37
2021/05/29 03:51:18;;;;;;;21.67;16.85;;;19.10;86.80;;;;;;5075799;28;20038;-37
2021/05/29 03:53:44;;;;;;;18.83;14.95;;;19.10;86.40;;;;;;5075875;28;20039;-44
2021/05/29 03:56:10;;;;;;;22.35;15.40;;;19.10;86.10;;;;;;5076056;28;20107;-47
2021/05/29 03:58:35;;;;;;;19.20;16.40;;;19.10;86.00;;;;;;5076229;28;20439;-48
2021/05/29 04:01:01;;;;;;;16.05;14.38;;;19.10;86.00;;;;;;5075897;28;20024;-46
2021/05/29 04:03:27;;;;;;;21.90;16.15;;;19.00;86.00;;;;;;5076017;28;20029;-46
2021/05/29 04:05:53;;;;;;;17.10;14.45;;;19.10;86.10;;;;;;5075683;28;20312;-47
2021/05/29 04:08:19;;;;;;;17.15;15.30;;;19.10;85.90;;;;;;5075933;28;20400;-45
2021/05/29 04:10:45;;;;;;;16.85;15.05;;;19.00;86.10;;;;;;5076090;28;20043;-37
2021/05/29 04:13:10;;;;;;;15.80;14.10;;;19.00;86.10;;;;;;5075878;28;20032;-37
2021/05/29 04:15:36;;;;;;;17.48;13.98;;;19.10;86.60;;;;;;5075620;28;20032;-36
2021/05/29 04:18:02;;;;;;;17.63;13.27;;;19.10;86.60;;;;;;5076064;28;20032;-37
2021/05/29 04:20:28;;;;;;;14.65;13.13;;;19.10;86.70;;;;;;5075397;28;20032;-38
2021/05/29 04:22:55;;;;;;;16.02;13.45;;;19.20;86.60;;;;;;5076014;28;20058;-37
2021/05/29 04:25:25;;;;;;;15.05;12.38;;;19.20;86.50;;;;;;5075885;28;20033;-36
2021/05/29 04:27:52;;;;;;;16.50;13.38;;;19.20;86.50;;;;;;5076143;28;20082;-37
2021/05/29 04:30:21;;;;;;;14.45;12.98;;;19.20;86.80;;;;;;5075424;28;20125;-37
2021/05/29 04:32:47;;;;;;;17.30;14.17;;;19.30;86.90;;;;;;5075809;28;20033;-36
2021/05/29 04:35:14;;;;;;;16.70;13.30;;;19.40;86.70;;;;;;5075660;28;20056;-36
2021/05/29 04:37:40;;;;;;;16.23;14.52;;;19.40;86.90;;;;;;5076043;28;20355;-45
2021/05/29 04:40:09;;;;;;;16.55;14.40;;;19.40;87.10;;;;;;5075299;28;20036;-37
2021/05/29 04:42:35;;;;;;;16.48;12.18;;;19.50;87.00;;;;;;5076100;28;20405;-37
2021/05/29 04:45:01;;;;;;;16.38;13.40;;;19.50;86.70;;;;;;5075375;28;20068;-38
2021/05/29 04:47:28;;;;;;;14.13;10.52;;;19.60;86.60;;;;;;5075243;28;20427;-48
2021/05/29 04:49:53;;;;;;;13.73;10.23;;;19.70;85.90;;;;;;5075224;28;20046;-49
2021/05/29 04:52:19;;;;;;;12.35;11.05;;;19.70;85.00;;;;;;5075406;28;20020;-37
2021/05/29 04:54:45;;;;;;;13.10;10.02;;;19.70;85.80;;;;;;5075069;28;20151;-47
2021/05/29 04:57:11;;;;;;;11.82;10.60;;;19.80;85.40;;;;;;5075508;28;20378;-45
2021/05/29 04:59:36;;;;;;;12.75;10.15;;;19.80;85.00;;;;;;5074845;28;20052;-47
2021/05/29 05:02:02;;;;;;;9.07;8.13;;;19.80;84.60;;;;;;5075222;28;20075;-47
2021/05/29 05:04:28;;;;;;;14.65;9.25;;;19.90;84.60;;;;;;5075255;28;20056;-47
2021/05/29 05:06:54;;;;;;;23.42;14.98;;;19.90;83.90;;;;;;5074661;28;20396;-45
2021/05/29 05:09:19;;;;;;;12.30;10.35;;;19.90;84.10;;;;;;5075331;28;20107;-44
2021/05/29 05:11:45;;;;;;;12.80;9.55;;;19.90;84.50;;;;;;5075196;28;20039;-37
2021/05/29 05:14:11;;;;;;;10.13;8.25;;;19.90;84.20;;;;;;5074857;28;20040;-43
2021/05/29 05:16:36;;;;;;;10.73;8.88;;;19.90;84.10;;;;;;5075315;28;20072;-44
2021/05/29 05:19:02;;;;;;;12.25;10.55;;;19.90;84.10;;;;;;5077054;28;20052;-36
2021/05/29 05:21:28;;;;;;;12.13;8.25;;;20.00;83.90;;;;;;5078597;28;20051;-37
2021/05/29 05:23:56;;;;;;;8.68;7.60;;;20.00;83.70;;;;;;5078611;28;20032;-37
2021/05/29 05:26:22;;;;;;;13.40;8.50;;;20.00;83.50;;;;;;5078874;28;20025;-37
2021/05/29 05:28:47;;;;;;;10.15;7.97;;;20.00;82.90;;;;;;5078879;28;20420;-36
2021/05/29 05:31:13;;;;;;;8.82;7.38;;;20.00;82.90;;;;;;5078677;28;20263;-37
2021/05/29 05:33:42;;;;;;;11.15;7.47;;;20.00;82.50;;;;;;5078465;28;20024;-37
2021/05/29 05:36:09;;;;;;;12.30;8.13;;;20.00;82.50;;;;;;5078064;28;20459;-37
2021/05/29 05:38:39;;;;;;;9.57;7.68;;;20.00;82.90;;;;;;5078558;28;20039;-46
2021/05/29 05:41:06;;;;;;;11.60;8.48;;;20.00;83.10;;;;;;5078405;28;20072;-37
2021/05/29 05:43:33;;;;;;;12.75;8.73;;;20.00;82.10;;;;;;5078235;28;20064;-37
2021/05/29 05:45:59;;;;;;;8.27;7.47;;;20.00;82.40;;;;;;5077999;28;20435;-45
2021/05/29 05:48:25;;;;;;;9.50;7.70;;;20.00;81.80;;;;;;5077820;28;20037;-47
2021/05/29 05:50:55;;;;;;;9.48;7.45;;;20.10;82.30;;;;;;5060340;28;20025;-37
2021/05/29 05:53:23;;;;;;;8.18;7.05;;;20.10;81.80;;;;;;5078082;28;20037;-37
2021/05/29 05:55:56;;;;;;;9.45;8.45;;;20.10;81.60;;;;;;5077478;28;20048;-37
2021/05/29 05:58:22;;;;;;;8.55;7.53;;;20.10;81.20;;;;;;5077514;28;20042;-36
2021/05/29 06:00:48;;;;;;;9.25;7.40;;;20.20;81.40;;;;;;5077831;28;20040;-46
2021/05/29 06:03:13;;;;;;;10.18;8.45;;;20.20;81.30;;;;;;5077694;28;20146;-46
2021/05/29 06:05:39;;;;;;;10.23;8.20;;;20.20;81.20;;;;;;5077699;28;20031;-45
2021/05/29 06:08:05;;;;;;;8.02;6.72;;;20.10;81.20;;;;;;5078042;28;20470;-46
2021/05/29 06:10:31;;;;;;;10.68;7.90;;;20.10;81.10;;;;;;5077966;28;20043;-45
2021/05/29 06:12:56;;;;;;;10.93;8.07;;;20.20;81.20;;;;;;5077726;28;20095;-48
2021/05/29 06:18:26;;;;;;;7.72;6.93;;;20.20;81.10;;;;;;5077842;28;20474;-46
2021/05/29 06:20:52;;;;;;;7.97;6.45;;;20.20;81.00;;;;;;5077194;28;20040;-50
2021/05/29 06:23:18;;;;;;;9.40;6.53;;;20.20;81.30;;;;;;5077635;28;20078;-46
2021/05/29 06:25:44;;;;;;;11.85;8.48;;;20.20;81.40;;;;;;5077416;28;20032;-47
2021/05/29 06:28:10;;;;;;;8.95;7.63;;;20.20;81.30;;;;;;5076291;28;20039;-46
2021/05/29 06:30:36;;;;;;;7.95;6.75;;;20.20;81.70;;;;;;5076903;28;20124;-46
2021/05/29 06:33:05;;;;;;;9.13;7.07;;;20.20;81.30;;;;;;5077175;28;20054;-46
2021/05/29 06:35:32;;;;;;;8.53;7.37;;;20.20;81.50;;;;;;5076840;28;20470;-45
2021/05/29 06:37:59;;;;;;;9.85;7.85;;;20.10;81.40;;;;;;5077060;28;20032;-45
2021/05/29 06:40:25;;;;;;;13.70;9.75;;;20.20;81.90;;;;;;5077233;28;20375;-46
2021/05/29 06:42:51;;;;;;;8.02;7.22;;;20.10;81.40;;;;;;5077176;28;20028;-45
2021/05/29 06:45:16;;;;;;;9.45;7.85;;;20.20;81.50;;;;;;5076860;28;20039;-48
2021/05/29 06:47:42;;;;;;;9.45;6.97;;;20.20;81.60;;;;;;5073512;28;20032;-47
2021/05/29 06:50:09;;;;;;;15.23;13.00;;;20.20;81.80;;;;;;5076829;28;20029;-47
2021/05/29 06:52:38;;;;;;;9.70;8.70;;;20.20;82.10;;;;;;5076341;28;20328;-48
2021/05/29 07:00:35;;;;;;;11.45;8.10;;;20.20;82.30;;;;;;5076407;28;20378;-45
2021/05/29 07:03:01;;;;;;;9.43;7.95;;;20.20;82.40;;;;;;5076163;28;20032;-46
2021/05/29 07:05:26;;;;;;;8.65;7.75;;;20.30;82.50;;;;;;5076451;28;20056;-45
2021/05/29 07:07:52;;;;;;;10.13;9.07;;;20.30;82.40;;;;;;5075930;28;20031;-46
2021/05/29 07:10:17;;;;;;;9.07;8.15;;;20.40;82.50;;;;;;5076230;28;20048;-46
2021/05/29 07:12:43;;;;;;;11.68;8.98;;;20.50;82.50;;;;;;5075782;28;20518;-46
2021/05/29 07:15:09;;;;;;;9.85;8.48;;;20.50;82.00;;;;;;5075982;28;20040;-46
2021/05/29 07:17:40;;;;;;;10.35;7.75;;;20.50;82.20;;;;;;5076078;28;20036;-45
2021/05/29 07:20:06;;;;;;;10.48;9.38;;;20.50;81.60;;;;;;5075870;28;20044;-44
2021/05/29 07:22:34;;;;;;;13.70;8.05;;;20.50;81.80;;;;;;5076169;28;20349;-45
2021/05/29 07:24:59;;;;;;;11.65;8.25;;;20.60;81.90;;;;;;5076330;28;20082;-47
2021/05/29 07:27:25;;;;;;;17.50;10.80;;;20.60;81.90;;;;;;5075475;28;20032;-37
2021/05/29 07:29:51;;;;;;;12.10;9.13;;;20.60;82.00;;;;;;5058273;28;20033;-37
2021/05/29 07:32:16;;;;;;;11.93;8.63;;;20.70;81.80;;;;;;5075941;28;20086;-45
2021/05/29 07:34:42;;;;;;;9.70;7.95;;;20.70;81.60;;;;;;5075299;28;20037;-47
2021/05/29 07:37:08;;;;;;;10.40;8.07;;;20.70;81.50;;;;;;5075862;28;20111;-37
2021/05/29 07:39:34;;;;;;;12.35;8.25;;;20.80;80.90;;;;;;5072849;28;20041;-48
2021/05/29 07:42:00;;;;;;;9.73;8.40;;;20.80;81.10;;;;;;5075138;28;20029;-47
2021/05/29 07:44:26;;;;;;;9.55;8.57;;;20.80;81.10;;;;;;5075630;28;20254;-45
2021/05/29 07:46:52;;;;;;;12.77;8.85;;;20.80;80.50;;;;;;5075283;28;20355;-46
2021/05/29 07:49:17;;;;;;;10.38;8.93;;;20.80;79.80;;;;;;5075557;28;20025;-46
2021/05/29 07:51:43;;;;;;;10.98;9.00;;;20.80;80.60;;;;;;5075424;28;20444;-48
2021/05/29 07:54:10;;;;;;;11.77;8.18;;;20.80;80.20;;;;;;5075087;28;20064;-49
2021/05/29 07:56:36;;;;;;;9.05;8.07;;;20.80;80.60;;;;;;5075284;28;20036;-37
2021/05/29 07:59:07;;;;;;;9.80;8.23;;;20.80;80.70;;;;;;5075124;28;20338;-46
2021/05/29 08:01:34;;;;;;;10.98;8.93;;;20.90;81.20;;;;;;5075069;28;20203;-37
2021/05/29 08:03:59;;;;;;;9.75;8.77;;;21.00;81.30;;;;;;5075623;28;20470;-37
2021/05/29 08:06:26;;;;;;;8.73;7.55;;;21.00;81.30;;;;;;5075120;28;20035;-47
2021/05/29 08:08:52;;;;;;;8.80;7.90;;;21.10;80.40;;;;;;5075067;28;20170;-37
2021/05/29 08:11:24;;;;;;;11.75;8.90;;;21.20;80.10;;;;;;5074938;28;20456;-37
2021/05/29 08:13:51;;;;;;;9.68;8.70;;;21.20;78.70;;;;;;5058544;28;20036;-46
2021/05/29 08:16:18;;;;;;;9.48;8.25;;;21.30;77.60;;;;;;5074997;28;20316;-46
2021/05/29 08:18:44;;;;;;;10.63;8.45;;;21.40;77.90;;;;;;5074876;28;20032;-45
2021/05/29 08:21:11;;;;;;;10.35;7.75;;;21.40;77.70;;;;;;5074848;28;20293;-45
2021/05/29 08:23:37;;;;;;;9.23;7.43;;;21.50;77.30;;;;;;5073514;28;20443;-46
2021/05/29 08:26:04;;;;;;;8.95;7.68;;;21.50;76.80;;;;;;5074984;28;20165;-49
2021/05/29 08:28:29;;;;;;;11.05;8.18;;;21.60;76.00;;;;;;5072110;28;20442;-46
2021/05/29 08:30:56;;;;;;;8.52;7.72;;;21.60;76.20;;;;;;5074344;28;20056;-45
2021/05/29 08:33:22;;;;;;;9.18;8.10;;;21.70;76.40;;;;;;5073898;28;20108;-46
2021/05/29 08:35:47;;;;;;;8.75;7.18;;;21.70;76.40;;;;;;5074828;28;20115;-46
2021/05/29 08:38:15;;;;;;;10.98;8.98;;;21.80;76.20;;;;;;5074640;28;20056;-45
2021/05/29 08:40:41;;;;;;;9.50;8.30;;;21.90;75.50;;;;;;5075141;28;20321;-48
2021/05/29 08:43:08;;;;;;;8.25;7.43;;;22.00;75.30;;;;;;5074894;28;20055;-49
2021/05/29 08:45:34;;;;;;;8.20;7.38;;;22.00;73.70;;;;;;5075012;28;20028;-37
2021/05/29 08:48:00;;;;;;;8.02;7.22;;;22.00;74.10;;;;;;5074719;28;20405;-37
2021/05/29 08:50:26;;;;;;;9.13;8.13;;;22.00;73.40;;;;;;5075202;28;20469;-47
2021/05/29 08:52:52;;;;;;;10.20;8.50;;;22.00;73.70;;;;;;5076547;28;20035;-47
2021/05/29 08:55:20;;;;;;;11.00;8.98;;;22.00;73.50;;;;;;5078499;28;20084;-46
2021/05/29 08:57:48;;;;;;;10.88;9.77;;;22.00;73.20;;;;;;5078602;28;20036;-46
2021/05/29 09:00:34;;;;;;;12.48;11.18;;;21.90;73.30;;;;;;5084841;28;20046;-48
2021/05/29 09:03:05;;;;;;;14.38;12.50;;;21.90;73.00;;;;;;5080078;28;20373;-44
2021/05/29 09:05:40;;;;;;;12.45;11.20;;;21.80;72.40;;;;;;5098919;28;20033;-47
2021/05/29 09:08:11;;;;;;;15.00;11.70;;;21.80;72.50;;;;;;5098770;28;20416;-45
2021/05/29 09:10:41;;;;;;;14.38;11.98;;;21.80;72.50;;;;;;5083597;28;20344;-50
2021/05/29 09:13:08;;;;;;;14.00;12.52;;;21.80;73.00;;;;;;5078367;28;20048;-47
2021/05/29 09:16:01;;;;;;;20.70;14.57;;;21.80;72.80;;;;;;5078541;28;20044;-46
2021/05/29 09:18:44;;;;;;;18.88;12.50;;;21.80;72.80;;;;;;5085363;28;20136;-37
2021/05/29 09:21:34;;;;;;;15.07;13.45;;;21.90;73.20;;;;;;5074349;28;20036;-37
2021/05/29 09:24:14;;;;;;;20.88;15.05;;;22.00;73.60;;;;;;5094392;28;20341;-37
2021/05/29 09:26:53;;;;;;;16.13;14.38;;;22.00;73.70;;;;;;5078660;28;20028;-37
2021/05/29 09:29:28;;;;;;;18.30;14.55;;;22.10;73.50;;;;;;5078290;28;20036;-37
2021/05/29 09:31:56;;;;;;;17.42;14.38;;;22.20;73.50;;;;;;5077963;28;20047;-38
2021/05/29 09:34:54;;;;;;;17.65;14.02;;;22.30;72.90;;;;;;5077933;28;20043;-37
2021/05/29 09:37:28;;;;;;;15.48;12.38;;;22.30;72.20;;;;;;5078142;28;20028;-45
2021/05/29 09:39:56;;;;;;;19.38;13.45;;;22.40;72.20;;;;;;5078168;28;20150;-46
2021/05/29 09:42:27;;;;;;;14.40;12.40;;;22.40;71.60;;;;;;5081787;28;20270;-47
2021/05/29 09:44:53;;;;;;;15.38;13.77;;;22.40;71.50;;;;;;5097397;28;20024;-47
2021/05/29 09:47:19;;;;;;;16.75;12.68;;;22.40;71.10;;;;;;5086484;28;20024;-45
2021/05/29 09:49:47;;;;;;;17.13;14.43;;;22.40;71.30;;;;;;5097371;28;20024;-46
2021/05/29 09:52:30;;;;;;;18.05;12.95;;;22.50;71.60;;;;;;5097951;28;20038;-45
2021/05/29 09:54:59;;;;;;;18.98;12.93;;;22.50;70.20;;;;;;5097720;28;20101;-48
2021/05/29 09:57:25;;;;;;;18.50;13.65;;;22.50;70.40;;;;;;5058052;28;20128;-45
2021/05/29 10:00:04;;;;;;;15.32;13.20;;;22.60;69.80;;;;;;5057898;28;20053;-46
2021/05/29 10:02:30;;;;;;;15.32;12.88;;;22.60;69.70;;;;;;5057804;28;20044;-46
2021/05/29 10:04:56;;;;;;;15.02;13.40;;;22.60;70.10;;;;;;5039130;28;20116;-38
2021/05/29 10:07:41;;;;;;;20.23;13.90;;;22.60;69.30;;;;;;5068384;28;20032;-45
2021/05/29 10:10:07;;;;;;;14.52;12.45;;;22.70;69.40;;;;;;5078223;28;20048;-48
2021/05/29 10:12:33;;;;;;;12.20;10.90;;;22.70;69.40;;;;;;5077819;28;20048;-37
2021/05/29 10:14:59;;;;;;;15.43;12.23;;;22.80;69.10;;;;;;5077540;28;20430;-37
2021/05/29 10:17:25;;;;;;;13.38;11.82;;;22.80;68.70;;;;;;5077895;28;20052;-37
2021/05/29 10:19:52;;;;;;;11.60;10.40;;;22.90;69.10;;;;;;5077625;28;20093;-39
2021/05/29 10:22:18;;;;;;;11.65;9.85;;;23.00;67.50;;;;;;5082487;28;20074;-37
2021/05/29 10:24:46;;;;;;;10.82;9.15;;;23.10;66.70;;;;;;5097559;28;20119;-37
2021/05/29 10:27:18;;;;;;;13.50;9.93;;;23.10;65.30;;;;;;5087192;28;20052;-37
2021/05/29 10:29:44;;;;;;;14.82;9.88;;;23.20;65.50;;;;;;5081933;28;20056;-37
2021/05/29 10:32:20;;;;;;;13.32;9.25;;;23.20;65.80;;;;;;5077352;28;20310;-37
2021/05/29 10:35:10;;;;;;;13.07;9.70;;;23.40;65.80;;;;;;5091847;28;20036;-46
2021/05/29 10:37:38;;;;;;;17.15;9.05;;;23.40;64.70;;;;;;5097684;28;20070;-46
2021/05/29 10:40:17;;;;;;;9.55;7.80;;;23.50;64.90;;;;;;5082911;28;20064;-44
2021/05/29 10:42:44;;;;;;;11.95;8.93;;;23.60;64.00;;;;;;5076860;28;20314;-47
2021/05/29 10:45:20;;;;;;;13.60;9.85;;;23.70;64.60;;;;;;5076265;28;20040;-44
2021/05/29 10:48:11;;;;;;;14.00;8.52;;;23.80;64.20;;;;;;5077141;28;20108;-47
2021/05/29 10:53:45;;;;;;;9.07;7.82;;;24.10;63.40;;;;;;5076581;28;20337;-47
2021/05/29 10:56:20;;;;;;;14.77;10.55;;;24.30;62.60;;;;;;5075179;28;20041;-37
2021/05/29 10:59:08;;;;;;;13.50;10.38;;;24.40;61.80;;;;;;5076795;28;20060;-48
2021/05/29 11:04:12;;;;;;;16.33;10.77;;;24.60;62.10;;;;;;5076376;28;20337;-37
2021/05/29 11:06:41;;;;;;;12.07;10.27;;;24.70;63.10;;;;;;5076817;28;20032;-37
2021/05/29 11:09:07;;;;;;;11.63;9.75;;;24.70;62.10;;;;;;5075797;28;20297;-45
2021/05/29 11:11:50;;;;;;;12.85;8.48;;;24.60;62.00;;;;;;5076389;28;20099;-37
2021/05/29 11:14:17;;;;;;;12.05;8.45;;;24.60;62.50;;;;;;5075872;28;20033;-37
2021/05/29 11:16:45;;;;;;;10.68;8.60;;;24.60;63.70;;;;;;5075365;28;20064;-37
2021/05/29 11:19:18;;;;;;;11.07;7.30;;;24.60;62.60;;;;;;5075678;28;20029;-37
2021/05/29 11:22:07;;;;;;;8.50;7.60;;;24.60;62.50;;;;;;5076303;28;20420;-50
2021/05/29 11:24:41;;;;;;;10.68;7.80;;;24.60;62.60;;;;;;5079574;28;20040;-47
2021/05/29 11:27:09;;;;;;;8.98;6.80;;;24.60;63.60;;;;;;5073371;28;20416;-47
2021/05/29 11:30:13;;;;;;;9.70;7.03;;;24.60;62.60;;;;;;5055959;28;20321;-46
2021/05/29 11:33:02;;;;;;;10.95;6.30;;;24.50;62.10;;;;;;5074425;28;20036;-46
2021/05/29 11:35:32;;;;;;;8.25;6.00;;;24.40;62.50;;;;;;5075563;28;20107;-48
2021/05/29 11:40:40;;;;;;;7.57;5.70;;;24.40;62.30;;;;;;5133388;27;20047;-47
2021/05/29 11:43:06;;;;;;;11.27;5.87;;;24.40;62.30;;;;;;5133480;27;20069;-49
2021/05/29 11:45:32;;;;;;;10.05;5.68;;;24.40;62.40;;;;;;5133136;27;20403;-47
2021/05/29 11:47:57;;;;;;;6.68;5.60;;;24.50;62.10;;;;;;5133730;27;20035;-48
2021/05/29 11:50:23;;;;;;;10.70;7.25;;;24.50;61.40;;;;;;5133127;27;20034;-46
2021/05/29 11:52:49;;;;;;;7.85;6.13;;;24.50;61.20;;;;;;5133305;27;20027;-48
2021/05/29 11:55:18;;;;;;;6.97;5.50;;;24.50;61.20;;;;;;5133173;27;20033;-50
2021/05/29 11:58:01;;;;;;;8.77;5.47;;;24.40;60.50;;;;;;5132899;27;20462;-49
2021/05/29 12:00:28;;;;;;;13.48;6.22;;;24.40;60.50;;;;;;5132985;27;20034;-48
2021/05/29 12:02:54;;;;;;;7.40;4.95;;;24.30;60.90;;;;;;5133503;27;20404;-46
2021/05/29 12:05:21;;;;;;;10.50;5.40;;;24.30;62.10;;;;;;5133004;27;20028;-37
2021/05/29 12:08:04;;;;;;;6.43;4.68;;;24.40;61.70;;;;;;5133557;27;20043;-37
2021/05/29 12:10:51;;;;;;;6.13;5.28;;;24.50;61.00;;;;;;5132503;27;20027;-48
2021/05/29 12:13:29;;;;;;;7.13;4.80;;;24.60;61.20;;;;;;5132639;27;20036;-46
2021/05/29 12:15:59;;;;;;;6.22;4.80;;;24.80;60.20;;;;;;5132516;27;20067;-49
2021/05/29 12:18:35;;;;;;;6.07;4.82;;;24.90;59.60;;;;;;5132731;27;20358;-37
2021/05/29 12:21:02;;;;;;;6.45;4.80;;;24.90;59.00;;;;;;5132207;27;20039;-37
2021/05/29 12:23:29;;;;;;;4.75;4.22;;;24.90;58.70;;;;;;5132973;27;20031;-37
2021/05/29 12:25:54;;;;;;;5.57;4.43;;;24.80;58.80;;;;;;5132669;27;20296;-37
2021/05/29 12:28:23;;;;;;;9.77;4.40;;;24.70;59.20;;;;;;5132387;27;20030;-47
2021/05/29 12:30:53;;;;;;;5.72;3.78;;;24.70;60.00;;;;;;5132223;27;20023;-37
2021/05/29 12:33:24;;;;;;;5.60;3.70;;;24.60;60.00;;;;;;5132345;27;20062;-37
2021/05/29 12:36:05;;;;;;;7.22;3.95;;;24.60;59.20;;;;;;5131730;27;20023;-48
2021/05/29 12:38:30;;;;;;;;;;;24.50;59.40;;;;;;5123979;27;20356;-47
2021/05/29 12:41:07;;;;;;;6.55;3.10;;;24.40;60.00;;;;;;5110611;28;19958;-46
2021/05/29 12:43:33;;;;;;;4.47;3.20;;;24.30;60.20;;;;;;5126542;28;20344;-50
2021/05/29 12:45:59;;;;;;;3.45;2.92;;;24.30;60.40;;;;;;5131798;27;20070;-45
2021/05/29 12:48:25;;;;;;;4.93;2.92;;;24.30;60.50;;;;;;5123976;27;20288;-49
2021/05/29 12:51:11;;;;;;;3.05;2.75;;;24.30;61.20;;;;;;5118263;28;20035;-47
2021/05/29 12:53:38;;;;;;;4.47;3.15;;;24.40;60.40;;;;;;5118710;28;20032;-47
2021/05/29 12:56:18;;;;;;;4.57;2.42;;;24.50;59.80;;;;;;5118172;28;20035;-50
2021/05/29 12:59:03;;;;;;;3.80;2.75;;;24.60;60.40;;;;;;5118579;28;20099;-48